sensor_id;sensor_type;location;lat;lon;timestamp;P1;durP1;ratioP1;P2;durP2;ratioP2
34573;SDS011;20809;49.594;8.734;2023-06-22T00:00:22;9.95;;;4.90;;
34573;SDS011;20809;49.594;8.734;2023-06-22T00:03:26;7.05;;;4.93;;
34573;SDS011;20809;49.594;8.734;2023-06-22T00:06:29;7.22;;;5.72;;
34573;SDS011;20809;49.594;8.734;2023-06-22T00:09:31;6.07;;;4.35;;
34573;SDS011;20809;49.594;8.734;2023-06-22T00:12:34;5.35;;;4.90;;
34573;SDS011;20809;49.594;8.734;2023-06-22T00:15:37;6.35;;;5.35;;
34573;SDS011;20809;49.594;8.734;2023-06-22T00:18:45;5.68;;;5.18;;
34573;SDS011;20809;49.594;8.734;2023-06-22T00:21:51;5.35;;;4.78;;
34573;SDS011;20809;49.594;8.734;2023-06-22T00:25:00;5.15;;;4.63;;
34573;SDS011;20809;49.594;8.734;2023-06-22T00:28:03;5.95;;;4.47;;
34573;SDS011;20809;49.594;8.734;2023-06-22T00:31:07;7.80;;;4.32;;
34573;SDS011;20809;49.594;8.734;2023-06-22T00:34:09;5.50;;;4.97;;
34573;SDS011;20809;49.594;8.734;2023-06-22T00:37:15;4.22;;;3.85;;
34573;SDS011;20809;49.594;8.734;2023-06-22T00:40:17;4.80;;;4.40;;
34573;SDS011;20809;49.594;8.734;2023-06-22T00:43:22;5.53;;;5.05;;
34573;SDS011;20809;49.594;8.734;2023-06-22T00:46:27;6.38;;;4.80;;
34573;SDS011;20809;49.594;8.734;2023-06-22T00:49:30;6.63;;;5.05;;
34573;SDS011;20809;49.594;8.734;2023-06-22T00:52:32;4.80;;;4.28;;
34573;SDS011;20809;49.594;8.734;2023-06-22T00:59:09;5.43;;;4.50;;
34573;SDS011;20809;49.594;8.734;2023-06-22T01:02:13;6.18;;;4.60;;
34573;SDS011;20809;49.594;8.734;2023-06-22T01:05:18;5.45;;;4.95;;
34573;SDS011;20809;49.594;8.734;2023-06-22T01:08:23;6.78;;;6.15;;
34573;SDS011;20809;49.594;8.734;2023-06-22T01:11:51;9.77;;;7.22;;
34573;SDS011;20809;49.594;8.734;2023-06-22T01:21:15;13.18;;;8.20;;
34573;SDS011;20809;49.594;8.734;2023-06-22T01:30:42;9.25;;;7.97;;
34573;SDS011;20809;49.594;8.734;2023-06-22T01:33:53;9.90;;;8.65;;
34573;SDS011;20809;49.594;8.734;2023-06-22T01:36:59;6.95;;;6.25;;
34573;SDS011;20809;49.594;8.734;2023-06-22T01:40:04;8.82;;;6.22;;
34573;SDS011;20809;49.594;8.734;2023-06-22T01:43:08;7.95;;;6.70;;
34573;SDS011;20809;49.594;8.734;2023-06-22T01:46:12;9.27;;;7.95;;
34573;SDS011;20809;49.594;8.734;2023-06-22T01:49:15;9.90;;;7.70;;
34573;SDS011;20809;49.594;8.734;2023-06-22T01:52:18;8.88;;;7.95;;
34573;SDS011;20809;49.594;8.734;2023-06-22T01:55:21;9.18;;;8.05;;
34573;SDS011;20809;49.594;8.734;2023-06-22T01:58:27;11.15;;;8.50;;
34573;SDS011;20809;49.594;8.734;2023-06-22T02:01:33;9.38;;;8.02;;
34573;SDS011;20809;49.594;8.734;2023-06-22T02:04:46;10.90;;;8.88;;
34573;SDS011;20809;49.594;8.734;2023-06-22T02:08:07;9.85;;;8.98;;
34573;SDS011;20809;49.594;8.734;2023-06-22T02:11:12;9.40;;;8.45;;
34573;SDS011;20809;49.594;8.734;2023-06-22T02:14:18;11.23;;;8.18;;
34573;SDS011;20809;49.594;8.734;2023-06-22T02:17:21;9.40;;;8.60;;
34573;SDS011;20809;49.594;8.734;2023-06-22T02:20:24;8.73;;;7.90;;
34573;SDS011;20809;49.594;8.734;2023-06-22T02:23:26;10.27;;;8.80;;
34573;SDS011;20809;49.594;8.734;2023-06-22T02:26:29;10.95;;;8.57;;
34573;SDS011;20809;49.594;8.734;2023-06-22T02:29:33;9.15;;;8.35;;
34573;SDS011;20809;49.594;8.734;2023-06-22T02:32:36;11.68;;;8.85;;
34573;SDS011;20809;49.594;8.734;2023-06-22T02:35:44;10.23;;;9.13;;
34573;SDS011;20809;49.594;8.734;2023-06-22T02:38:49;8.80;;;7.45;;
34573;SDS011;20809;49.594;8.734;2023-06-22T02:41:52;8.43;;;7.07;;
34573;SDS011;20809;49.594;8.734;2023-06-22T02:44:55;9.18;;;8.30;;
34573;SDS011;20809;49.594;8.734;2023-06-22T02:47:58;9.00;;;8.15;;
34573;SDS011;20809;49.594;8.734;2023-06-22T02:51:03;9.00;;;8.15;;
34573;SDS011;20809;49.594;8.734;2023-06-22T02:54:06;9.77;;;7.75;;
34573;SDS011;20809;49.594;8.734;2023-06-22T02:57:08;7.97;;;7.28;;
34573;SDS011;20809;49.594;8.734;2023-06-22T03:00:14;8.48;;;7.68;;
34573;SDS011;20809;49.594;8.734;2023-06-22T03:03:19;8.75;;;7.30;;
34573;SDS011;20809;49.594;8.734;2023-06-22T03:06:21;8.80;;;7.72;;
34573;SDS011;20809;49.594;8.734;2023-06-22T03:09:23;8.80;;;7.97;;
34573;SDS011;20809;49.594;8.734;2023-06-22T03:12:25;11.73;;;8.48;;
34573;SDS011;20809;49.594;8.734;2023-06-22T03:15:29;9.05;;;7.93;;
34573;SDS011;20809;49.594;8.734;2023-06-22T03:18:34;9.60;;;8.63;;
34573;SDS011;20809;49.594;8.734;2023-06-22T03:21:36;9.32;;;7.50;;
34573;SDS011;20809;49.594;8.734;2023-06-22T03:24:41;9.23;;;8.32;;
34573;SDS011;20809;49.594;8.734;2023-06-22T03:27:42;8.80;;;8.00;;
34573;SDS011;20809;49.594;8.734;2023-06-22T03:30:44;9.30;;;8.40;;
34573;SDS011;20809;49.594;8.734;2023-06-22T03:33:49;9.70;;;8.68;;
34573;SDS011;20809;49.594;8.734;2023-06-22T03:36:51;9.15;;;8.25;;
34573;SDS011;20809;49.594;8.734;2023-06-22T03:39:55;9.38;;;8.55;;
34573;SDS011;20809;49.594;8.734;2023-06-22T03:45:57;10.70;;;9.40;;
34573;SDS011;20809;49.594;8.734;2023-06-22T03:49:02;8.88;;;8.10;;
34573;SDS011;20809;49.594;8.734;2023-06-22T03:52:04;10.05;;;9.07;;
34573;SDS011;20809;49.594;8.734;2023-06-22T03:55:06;10.18;;;9.13;;
34573;SDS011;20809;49.594;8.734;2023-06-22T03:58:08;10.40;;;8.52;;
34573;SDS011;20809;49.594;8.734;2023-06-22T04:01:13;10.15;;;8.25;;
34573;SDS011;20809;49.594;8.734;2023-06-22T04:04:20;9.52;;;8.32;;
34573;SDS011;20809;49.594;8.734;2023-06-22T04:07:23;7.88;;;7.28;;
34573;SDS011;20809;49.594;8.734;2023-06-22T04:10:24;7.95;;;7.32;;
34573;SDS011;20809;49.594;8.734;2023-06-22T04:13:25;8.40;;;7.60;;
34573;SDS011;20809;49.594;8.734;2023-06-22T04:16:26;9.68;;;7.20;;
34573;SDS011;20809;49.594;8.734;2023-06-22T04:19:26;8.35;;;7.10;;
34573;SDS011;20809;49.594;8.734;2023-06-22T04:22:27;7.47;;;6.78;;
34573;SDS011;20809;49.594;8.734;2023-06-22T04:25:28;7.97;;;7.28;;
34573;SDS011;20809;49.594;8.734;2023-06-22T04:28:31;8.25;;;6.80;;
34573;SDS011;20809;49.594;8.734;2023-06-22T04:31:35;8.10;;;6.97;;
34573;SDS011;20809;49.594;8.734;2023-06-22T04:34:38;7.97;;;6.70;;
34573;SDS011;20809;49.594;8.734;2023-06-22T04:37:39;11.75;;;6.75;;
34573;SDS011;20809;49.594;8.734;2023-06-22T04:40:40;6.78;;;6.18;;
34573;SDS011;20809;49.594;8.734;2023-06-22T04:43:40;6.75;;;5.80;;
34573;SDS011;20809;49.594;8.734;2023-06-22T04:46:41;6.57;;;6.07;;
34573;SDS011;20809;49.594;8.734;2023-06-22T04:49:45;6.72;;;6.03;;
34573;SDS011;20809;49.594;8.734;2023-06-22T04:55:46;6.37;;;5.43;;
34573;SDS011;20809;49.594;8.734;2023-06-22T04:58:53;7.53;;;6.03;;
34573;SDS011;20809;49.594;8.734;2023-06-22T05:01:57;8.15;;;6.13;;
34573;SDS011;20809;49.594;8.734;2023-06-22T05:05:00;7.00;;;6.35;;
34573;SDS011;20809;49.594;8.734;2023-06-22T05:08:07;6.72;;;6.13;;
34573;SDS011;20809;49.594;8.734;2023-06-22T05:11:07;6.07;;;5.53;;
34573;SDS011;20809;49.594;8.734;2023-06-22T05:17:09;5.90;;;5.40;;
34573;SDS011;20809;49.594;8.734;2023-06-22T05:20:13;7.40;;;5.45;;
34573;SDS011;20809;49.594;8.734;2023-06-22T05:23:17;7.13;;;6.15;;
34573;SDS011;20809;49.594;8.734;2023-06-22T05:26:19;7.85;;;6.80;;
34573;SDS011;20809;49.594;8.734;2023-06-22T05:29:20;6.72;;;6.13;;
34573;SDS011;20809;49.594;8.734;2023-06-22T05:32:22;14.10;;;6.28;;
34573;SDS011;20809;49.594;8.734;2023-06-22T05:35:23;25.20;;;7.95;;
34573;SDS011;20809;49.594;8.734;2023-06-22T05:38:23;6.72;;;5.88;;
34573;SDS011;20809;49.594;8.734;2023-06-22T05:44:24;6.67;;;6.07;;
34573;SDS011;20809;49.594;8.734;2023-06-22T05:47:25;8.57;;;6.50;;
34573;SDS011;20809;49.594;8.734;2023-06-22T05:50:26;10.02;;;6.30;;
34573;SDS011;20809;49.594;8.734;2023-06-22T05:53:26;6.57;;;5.97;;
34573;SDS011;20809;49.594;8.734;2023-06-22T05:56:27;7.05;;;6.43;;
34573;SDS011;20809;49.594;8.734;2023-06-22T05:59:31;7.38;;;6.20;;
34573;SDS011;20809;49.594;8.734;2023-06-22T06:02:31;8.27;;;6.93;;
34573;SDS011;20809;49.594;8.734;2023-06-22T06:05:34;6.65;;;6.05;;
34573;SDS011;20809;49.594;8.734;2023-06-22T06:11:35;8.07;;;6.37;;
34573;SDS011;20809;49.594;8.734;2023-06-22T06:14:36;6.30;;;5.78;;
34573;SDS011;20809;49.594;8.734;2023-06-22T06:17:49;6.60;;;6.00;;
34573;SDS011;20809;49.594;8.734;2023-06-22T06:20:50;8.95;;;6.68;;
34573;SDS011;20809;49.594;8.734;2023-06-22T06:26:51;7.17;;;6.47;;
34573;SDS011;20809;49.594;8.734;2023-06-22T06:32:53;6.40;;;5.80;;
34573;SDS011;20809;49.594;8.734;2023-06-22T06:38:55;11.98;;;6.70;;
34573;SDS011;20809;49.594;8.734;2023-06-22T06:44:57;7.30;;;6.70;;
34573;SDS011;20809;49.594;8.734;2023-06-22T06:51:01;6.60;;;5.63;;
34573;SDS011;20809;49.594;8.734;2023-06-22T06:54:02;10.35;;;6.75;;
34573;SDS011;20809;49.594;8.734;2023-06-22T07:00:08;8.80;;;6.28;;
34573;SDS011;20809;49.594;8.734;2023-06-22T07:03:11;6.95;;;6.07;;
34573;SDS011;20809;49.594;8.734;2023-06-22T07:09:13;12.40;;;6.90;;
34573;SDS011;20809;49.594;8.734;2023-06-22T07:15:15;12.82;;;7.03;;
34573;SDS011;20809;49.594;8.734;2023-06-22T07:21:16;6.83;;;6.13;;
34573;SDS011;20809;49.594;8.734;2023-06-22T07:27:19;6.63;;;6.00;;
34573;SDS011;20809;49.594;8.734;2023-06-22T07:30:21;6.88;;;6.07;;
34573;SDS011;20809;49.594;8.734;2023-06-22T07:33:21;7.70;;;6.82;;
34573;SDS011;20809;49.594;8.734;2023-06-22T07:36:22;8.02;;;6.68;;
34573;SDS011;20809;49.594;8.734;2023-06-22T07:39:23;6.32;;;5.75;;
34573;SDS011;20809;49.594;8.734;2023-06-22T07:42:26;6.38;;;5.88;;
34573;SDS011;20809;49.594;8.734;2023-06-22T07:45:30;6.80;;;6.18;;
34573;SDS011;20809;49.594;8.734;2023-06-22T07:48:33;6.53;;;6.00;;
34573;SDS011;20809;49.594;8.734;2023-06-22T07:51:37;6.80;;;6.20;;
34573;SDS011;20809;49.594;8.734;2023-06-22T07:54:38;7.43;;;6.40;;
34573;SDS011;20809;49.594;8.734;2023-06-22T07:57:39;8.10;;;6.40;;
34573;SDS011;20809;49.594;8.734;2023-06-22T08:00:42;7.72;;;6.05;;
34573;SDS011;20809;49.594;8.734;2023-06-22T08:03:43;5.82;;;5.28;;
34573;SDS011;20809;49.594;8.734;2023-06-22T08:06:44;6.75;;;5.88;;
34573;SDS011;20809;49.594;8.734;2023-06-22T08:09:46;5.63;;;5.10;;
34573;SDS011;20809;49.594;8.734;2023-06-22T08:12:48;6.90;;;6.30;;
34573;SDS011;20809;49.594;8.734;2023-06-22T08:15:49;6.10;;;5.57;;
34573;SDS011;20809;49.594;8.734;2023-06-22T08:18:50;5.72;;;5.22;;
34573;SDS011;20809;49.594;8.734;2023-06-22T08:21:53;6.30;;;5.80;;
34573;SDS011;20809;49.594;8.734;2023-06-22T08:24:54;7.55;;;5.95;;
34573;SDS011;20809;49.594;8.734;2023-06-22T08:27:54;6.15;;;5.65;;
34573;SDS011;20809;49.594;8.734;2023-06-22T08:30:59;6.95;;;6.32;;
34573;SDS011;20809;49.594;8.734;2023-06-22T08:34:01;7.40;;;6.80;;
34573;SDS011;20809;49.594;8.734;2023-06-22T08:37:02;6.65;;;6.10;;
34573;SDS011;20809;49.594;8.734;2023-06-22T08:40:09;6.00;;;5.50;;
34573;SDS011;20809;49.594;8.734;2023-06-22T08:43:10;7.22;;;6.40;;
34573;SDS011;20809;49.594;8.734;2023-06-22T08:46:11;6.75;;;6.15;;
34573;SDS011;20809;49.594;8.734;2023-06-22T08:49:20;7.78;;;6.25;;
34573;SDS011;20809;49.594;8.734;2023-06-22T08:52:20;6.03;;;5.63;;
34573;SDS011;20809;49.594;8.734;2023-06-22T08:55:23;7.65;;;6.45;;
34573;SDS011;20809;49.594;8.734;2023-06-22T08:58:24;6.68;;;6.05;;
34573;SDS011;20809;49.594;8.734;2023-06-22T09:01:24;6.47;;;5.57;;
34573;SDS011;20809;49.594;8.734;2023-06-22T09:04:28;6.63;;;6.10;;
34573;SDS011;20809;49.594;8.734;2023-06-22T09:07:29;6.32;;;5.93;;
34573;SDS011;20809;49.594;8.734;2023-06-22T09:10:29;8.13;;;6.30;;
34573;SDS011;20809;49.594;8.734;2023-06-22T09:13:31;6.80;;;6.13;;
34573;SDS011;20809;49.594;8.734;2023-06-22T09:16:32;7.03;;;5.72;;
34573;SDS011;20809;49.594;8.734;2023-06-22T09:19:33;6.90;;;6.30;;
34573;SDS011;20809;49.594;8.734;2023-06-22T09:22:33;7.10;;;6.25;;
34573;SDS011;20809;49.594;8.734;2023-06-22T09:25:34;7.18;;;6.45;;
34573;SDS011;20809;49.594;8.734;2023-06-22T09:28:35;6.60;;;6.00;;
34573;SDS011;20809;49.594;8.734;2023-06-22T09:31:38;7.38;;;6.53;;
34573;SDS011;20809;49.594;8.734;2023-06-22T09:34:40;6.40;;;5.90;;
34573;SDS011;20809;49.594;8.734;2023-06-22T09:37:41;8.07;;;5.72;;
34573;SDS011;20809;49.594;8.734;2023-06-22T09:40:42;8.18;;;6.28;;
34573;SDS011;20809;49.594;8.734;2023-06-22T09:43:43;6.50;;;5.95;;
34573;SDS011;20809;49.594;8.734;2023-06-22T09:46:48;6.07;;;5.57;;
34573;SDS011;20809;49.594;8.734;2023-06-22T09:49:48;9.50;;;5.60;;
34573;SDS011;20809;49.594;8.734;2023-06-22T09:52:49;6.80;;;6.10;;
34573;SDS011;20809;49.594;8.734;2023-06-22T09:55:54;6.50;;;5.93;;
34573;SDS011;20809;49.594;8.734;2023-06-22T09:58:55;7.15;;;5.65;;
34573;SDS011;20809;49.594;8.734;2023-06-22T10:01:56;6.18;;;5.68;;
34573;SDS011;20809;49.594;8.734;2023-06-22T10:04:57;7.50;;;5.55;;
34573;SDS011;20809;49.594;8.734;2023-06-22T10:07:57;6.18;;;5.22;;
34573;SDS011;20809;49.594;8.734;2023-06-22T10:10:58;8.13;;;5.50;;
34573;SDS011;20809;49.594;8.734;2023-06-22T10:14:02;6.43;;;5.82;;
34573;SDS011;20809;49.594;8.734;2023-06-22T10:17:04;11.25;;;5.45;;
34573;SDS011;20809;49.594;8.734;2023-06-22T10:20:07;5.85;;;5.35;;
34573;SDS011;20809;49.594;8.734;2023-06-22T10:23:12;7.05;;;6.28;;
34573;SDS011;20809;49.594;8.734;2023-06-22T10:26:12;6.57;;;5.35;;
34573;SDS011;20809;49.594;8.734;2023-06-22T10:29:13;6.45;;;5.43;;
34573;SDS011;20809;49.594;8.734;2023-06-22T10:32:14;9.93;;;6.00;;
34573;SDS011;20809;49.594;8.734;2023-06-22T10:35:15;9.68;;;5.80;;
34573;SDS011;20809;49.594;8.734;2023-06-22T10:38:16;7.53;;;4.72;;
34573;SDS011;20809;49.594;8.734;2023-06-22T10:41:16;7.38;;;5.22;;
34573;SDS011;20809;49.594;8.734;2023-06-22T10:44:17;6.15;;;5.35;;
34573;SDS011;20809;49.594;8.734;2023-06-22T10:47:18;10.63;;;5.10;;
34573;SDS011;20809;49.594;8.734;2023-06-22T10:50:18;10.63;;;5.82;;
34573;SDS011;20809;49.594;8.734;2023-06-22T10:53:20;14.10;;;5.85;;
34573;SDS011;20809;49.594;8.734;2023-06-22T10:56:24;9.63;;;5.60;;
34573;SDS011;20809;49.594;8.734;2023-06-22T10:59:25;7.68;;;5.65;;
34573;SDS011;20809;49.594;8.734;2023-06-22T11:02:26;9.48;;;6.20;;
34573;SDS011;20809;49.594;8.734;2023-06-22T11:05:28;6.00;;;5.22;;
34573;SDS011;20809;49.594;8.734;2023-06-22T11:08:29;5.97;;;5.38;;
34573;SDS011;20809;49.594;8.734;2023-06-22T11:11:30;8.80;;;6.57;;
34573;SDS011;20809;49.594;8.734;2023-06-22T11:14:30;7.90;;;5.85;;
34573;SDS011;20809;49.594;8.734;2023-06-22T11:17:31;8.25;;;5.50;;
34573;SDS011;20809;49.594;8.734;2023-06-22T11:20:33;8.65;;;6.22;;
34573;SDS011;20809;49.594;8.734;2023-06-22T11:23:38;6.70;;;5.72;;
34573;SDS011;20809;49.594;8.734;2023-06-22T11:26:39;8.25;;;5.72;;
34573;SDS011;20809;49.594;8.734;2023-06-22T11:29:39;11.30;;;5.80;;
34573;SDS011;20809;49.594;8.734;2023-06-22T11:32:40;8.70;;;6.07;;
34573;SDS011;20809;49.594;8.734;2023-06-22T11:35:41;9.10;;;5.70;;
34573;SDS011;20809;49.594;8.734;2023-06-22T11:38:42;8.10;;;5.80;;
34573;SDS011;20809;49.594;8.734;2023-06-22T11:41:43;9.30;;;6.13;;
34573;SDS011;20809;49.594;8.734;2023-06-22T11:44:44;12.77;;;6.13;;
34573;SDS011;20809;49.594;8.734;2023-06-22T11:47:45;9.00;;;6.60;;
34573;SDS011;20809;49.594;8.734;2023-06-22T11:50:45;7.93;;;5.68;;
34573;SDS011;20809;49.594;8.734;2023-06-22T11:53:46;9.85;;;6.35;;
34573;SDS011;20809;49.594;8.734;2023-06-22T11:56:47;8.57;;;6.60;;
34573;SDS011;20809;49.594;8.734;2023-06-22T11:59:48;9.85;;;5.80;;
34573;SDS011;20809;49.594;8.734;2023-06-22T12:02:49;8.40;;;6.03;;
34573;SDS011;20809;49.594;8.734;2023-06-22T12:05:52;6.88;;;6.30;;
34573;SDS011;20809;49.594;8.734;2023-06-22T12:08:56;8.52;;;6.03;;
34573;SDS011;20809;49.594;8.734;2023-06-22T12:11:56;8.75;;;5.80;;
34573;SDS011;20809;49.594;8.734;2023-06-22T12:14:57;8.43;;;6.93;;
34573;SDS011;20809;49.594;8.734;2023-06-22T12:17:58;7.25;;;5.80;;
34573;SDS011;20809;49.594;8.734;2023-06-22T12:21:01;9.20;;;6.22;;
34573;SDS011;20809;49.594;8.734;2023-06-22T12:24:02;6.95;;;6.28;;
34573;SDS011;20809;49.594;8.734;2023-06-22T12:27:03;6.68;;;6.07;;
34573;SDS011;20809;49.594;8.734;2023-06-22T12:30:04;11.73;;;6.50;;
34573;SDS011;20809;49.594;8.734;2023-06-22T12:33:05;11.57;;;5.97;;
34573;SDS011;20809;49.594;8.734;2023-06-22T12:36:08;9.45;;;6.47;;
34573;SDS011;20809;49.594;8.734;2023-06-22T12:39:09;9.13;;;6.00;;
34573;SDS011;20809;49.594;8.734;2023-06-22T12:42:10;13.85;;;6.38;;
34573;SDS011;20809;49.594;8.734;2023-06-22T12:45:11;13.77;;;6.95;;
34573;SDS011;20809;49.594;8.734;2023-06-22T12:48:12;10.07;;;6.55;;
34573;SDS011;20809;49.594;8.734;2023-06-22T12:51:19;11.15;;;6.63;;
34573;SDS011;20809;49.594;8.734;2023-06-22T12:54:21;10.38;;;6.40;;
34573;SDS011;20809;49.594;8.734;2023-06-22T12:57:22;6.70;;;6.07;;
34573;SDS011;20809;49.594;8.734;2023-06-22T13:00:23;11.10;;;6.25;;
34573;SDS011;20809;49.594;8.734;2023-06-22T13:03:24;8.95;;;6.60;;
34573;SDS011;20809;49.594;8.734;2023-06-22T13:06:26;9.48;;;6.53;;
34573;SDS011;20809;49.594;8.734;2023-06-22T13:09:27;11.32;;;6.18;;
34573;SDS011;20809;49.594;8.734;2023-06-22T13:12:28;9.75;;;6.15;;
34573;SDS011;20809;49.594;8.734;2023-06-22T13:15:29;9.25;;;5.32;;
34573;SDS011;20809;49.594;8.734;2023-06-22T13:18:29;10.05;;;5.80;;
34573;SDS011;20809;49.594;8.734;2023-06-22T13:21:30;8.93;;;6.35;;
34573;SDS011;20809;49.594;8.734;2023-06-22T13:24:31;6.22;;;5.53;;
34573;SDS011;20809;49.594;8.734;2023-06-22T13:27:32;9.30;;;6.35;;
34573;SDS011;20809;49.594;8.734;2023-06-22T13:30:33;8.40;;;5.25;;
34573;SDS011;20809;49.594;8.734;2023-06-22T13:33:33;9.63;;;5.57;;
34573;SDS011;20809;49.594;8.734;2023-06-22T13:36:34;10.30;;;6.55;;
34573;SDS011;20809;49.594;8.734;2023-06-22T13:39:35;8.38;;;6.07;;
34573;SDS011;20809;49.594;8.734;2023-06-22T13:42:35;8.02;;;5.22;;
34573;SDS011;20809;49.594;8.734;2023-06-22T13:45:36;8.40;;;5.38;;
34573;SDS011;20809;49.594;8.734;2023-06-22T13:48:37;8.57;;;6.25;;
34573;SDS011;20809;49.594;8.734;2023-06-22T13:51:38;8.00;;;5.90;;
34573;SDS011;20809;49.594;8.734;2023-06-22T13:54:38;9.27;;;5.95;;
34573;SDS011;20809;49.594;8.734;2023-06-22T13:57:39;7.68;;;5.68;;
34573;SDS011;20809;49.594;8.734;2023-06-22T14:00:40;8.60;;;5.97;;
34573;SDS011;20809;49.594;8.734;2023-06-22T14:03:44;11.05;;;5.88;;
34573;SDS011;20809;49.594;8.734;2023-06-22T14:06:47;11.13;;;5.65;;
34573;SDS011;20809;49.594;8.734;2023-06-22T14:09:47;6.50;;;4.88;;
34573;SDS011;20809;49.594;8.734;2023-06-22T14:12:48;8.27;;;5.55;;
34573;SDS011;20809;49.594;8.734;2023-06-22T14:15:49;11.07;;;5.10;;
34573;SDS011;20809;49.594;8.734;2023-06-22T14:18:52;8.38;;;4.88;;
34573;SDS011;20809;49.594;8.734;2023-06-22T14:21:53;10.95;;;5.55;;
34573;SDS011;20809;49.594;8.734;2023-06-22T14:24:53;8.10;;;5.50;;
34573;SDS011;20809;49.594;8.734;2023-06-22T14:27:56;11.23;;;5.05;;
34573;SDS011;20809;49.594;8.734;2023-06-22T14:30:57;11.60;;;5.18;;
34573;SDS011;20809;49.594;8.734;2023-06-22T14:33:58;8.27;;;5.22;;
34573;SDS011;20809;49.594;8.734;2023-06-22T14:36:59;7.60;;;5.35;;
34573;SDS011;20809;49.594;8.734;2023-06-22T14:39:59;13.13;;;4.97;;
34573;SDS011;20809;49.594;8.734;2023-06-22T14:43:00;14.20;;;5.28;;
34573;SDS011;20809;49.594;8.734;2023-06-22T14:46:01;11.82;;;5.65;;
34573;SDS011;20809;49.594;8.734;2023-06-22T14:49:02;9.75;;;5.45;;
34573;SDS011;20809;49.594;8.734;2023-06-22T14:52:02;9.95;;;5.32;;
34573;SDS011;20809;49.594;8.734;2023-06-22T14:55:03;8.55;;;5.10;;
34573;SDS011;20809;49.594;8.734;2023-06-22T14:58:05;9.77;;;4.82;;
34573;SDS011;20809;49.594;8.734;2023-06-22T15:01:05;5.85;;;5.10;;
34573;SDS011;20809;49.594;8.734;2023-06-22T15:04:08;7.00;;;4.97;;
34573;SDS011;20809;49.594;8.734;2023-06-22T15:07:08;8.43;;;5.03;;
34573;SDS011;20809;49.594;8.734;2023-06-22T15:10:09;12.73;;;5.68;;
34573;SDS011;20809;49.594;8.734;2023-06-22T15:13:10;7.68;;;5.80;;
34573;SDS011;20809;49.594;8.734;2023-06-22T15:16:11;8.93;;;5.47;;
34573;SDS011;20809;49.594;8.734;2023-06-22T15:19:12;11.88;;;5.93;;
34573;SDS011;20809;49.594;8.734;2023-06-22T15:22:12;9.93;;;6.03;;
34573;SDS011;20809;49.594;8.734;2023-06-22T15:25:18;10.55;;;5.32;;
34573;SDS011;20809;49.594;8.734;2023-06-22T15:28:19;9.00;;;5.43;;
34573;SDS011;20809;49.594;8.734;2023-06-22T15:31:21;9.65;;;5.43;;
34573;SDS011;20809;49.594;8.734;2023-06-22T15:34:21;9.38;;;5.70;;
34573;SDS011;20809;49.594;8.734;2023-06-22T15:37:22;6.70;;;5.47;;
34573;SDS011;20809;49.594;8.734;2023-06-22T15:40:23;12.57;;;8.18;;
34573;SDS011;20809;49.594;8.734;2023-06-22T15:43:24;9.60;;;5.53;;
34573;SDS011;20809;49.594;8.734;2023-06-22T15:46:24;8.65;;;6.03;;
34573;SDS011;20809;49.594;8.734;2023-06-22T15:49:25;12.77;;;7.72;;
34573;SDS011;20809;49.594;8.734;2023-06-22T15:52:27;8.38;;;6.22;;
34573;SDS011;20809;49.594;8.734;2023-06-22T15:55:28;11.60;;;6.18;;
34573;SDS011;20809;49.594;8.734;2023-06-22T15:58:31;11.60;;;6.25;;
34573;SDS011;20809;49.594;8.734;2023-06-22T16:01:31;10.95;;;6.13;;
34573;SDS011;20809;49.594;8.734;2023-06-22T16:04:32;10.48;;;6.28;;
34573;SDS011;20809;49.594;8.734;2023-06-22T16:07:33;11.27;;;5.95;;
34573;SDS011;20809;49.594;8.734;2023-06-22T16:10:34;11.65;;;6.95;;
34573;SDS011;20809;49.594;8.734;2023-06-22T16:13:35;12.05;;;5.75;;
34573;SDS011;20809;49.594;8.734;2023-06-22T16:16:35;8.93;;;6.05;;
34573;SDS011;20809;49.594;8.734;2023-06-22T16:19:36;14.55;;;7.47;;
34573;SDS011;20809;49.594;8.734;2023-06-22T16:22:37;15.25;;;6.05;;
34573;SDS011;20809;49.594;8.734;2023-06-22T16:25:38;12.20;;;6.43;;
34573;SDS011;20809;49.594;8.734;2023-06-22T16:28:39;10.23;;;5.72;;
34573;SDS011;20809;49.594;8.734;2023-06-22T16:31:40;13.07;;;6.05;;
34573;SDS011;20809;49.594;8.734;2023-06-22T16:34:40;9.52;;;6.13;;
34573;SDS011;20809;49.594;8.734;2023-06-22T16:37:41;12.38;;;6.05;;
34573;SDS011;20809;49.594;8.734;2023-06-22T16:40:42;11.00;;;6.38;;
34573;SDS011;20809;49.594;8.734;2023-06-22T16:43:43;15.05;;;6.40;;
34573;SDS011;20809;49.594;8.734;2023-06-22T16:46:47;10.63;;;5.90;;
34573;SDS011;20809;49.594;8.734;2023-06-22T16:49:48;10.40;;;6.20;;
34573;SDS011;20809;49.594;8.734;2023-06-22T16:52:49;10.38;;;6.35;;
34573;SDS011;20809;49.594;8.734;2023-06-22T16:55:50;11.13;;;5.95;;
34573;SDS011;20809;49.594;8.734;2023-06-22T16:58:53;10.95;;;5.45;;
34573;SDS011;20809;49.594;8.734;2023-06-22T17:01:55;14.55;;;6.25;;
34573;SDS011;20809;49.594;8.734;2023-06-22T17:04:57;10.98;;;5.53;;
34573;SDS011;20809;49.594;8.734;2023-06-22T17:07:59;13.98;;;5.82;;
34573;SDS011;20809;49.594;8.734;2023-06-22T17:11:03;14.00;;;6.15;;
34573;SDS011;20809;49.594;8.734;2023-06-22T17:14:05;9.60;;;5.30;;
34573;SDS011;20809;49.594;8.734;2023-06-22T17:17:06;11.85;;;6.05;;
34573;SDS011;20809;49.594;8.734;2023-06-22T17:20:08;10.18;;;5.35;;
34573;SDS011;20809;49.594;8.734;2023-06-22T17:23:10;11.50;;;4.45;;
34573;SDS011;20809;49.594;8.734;2023-06-22T17:26:10;9.38;;;4.25;;
34573;SDS011;20809;49.594;8.734;2023-06-22T17:29:12;10.13;;;4.20;;
34573;SDS011;20809;49.594;8.734;2023-06-22T17:32:13;7.70;;;4.53;;
34573;SDS011;20809;49.594;8.734;2023-06-22T17:35:14;6.05;;;3.75;;
34573;SDS011;20809;49.594;8.734;2023-06-22T17:38:21;5.85;;;3.53;;
34573;SDS011;20809;49.594;8.734;2023-06-22T17:41:26;7.35;;;4.55;;
34573;SDS011;20809;49.594;8.734;2023-06-22T17:44:32;7.85;;;4.10;;
34573;SDS011;20809;49.594;8.734;2023-06-22T17:47:34;8.32;;;3.83;;
34573;SDS011;20809;49.594;8.734;2023-06-22T17:50:38;10.55;;;3.75;;
34573;SDS011;20809;49.594;8.734;2023-06-22T17:53:48;11.23;;;3.90;;
34573;SDS011;20809;49.594;8.734;2023-06-22T17:56:50;9.13;;;4.27;;
34573;SDS011;20809;49.594;8.734;2023-06-22T17:59:51;9.93;;;3.75;;
34573;SDS011;20809;49.594;8.734;2023-06-22T18:02:52;8.50;;;3.58;;
34573;SDS011;20809;49.594;8.734;2023-06-22T18:05:53;7.78;;;4.38;;
34573;SDS011;20809;49.594;8.734;2023-06-22T18:08:58;8.32;;;3.78;;
34573;SDS011;20809;49.594;8.734;2023-06-22T18:12:02;11.23;;;4.57;;
34573;SDS011;20809;49.594;8.734;2023-06-22T18:15:05;8.55;;;3.30;;
34573;SDS011;20809;49.594;8.734;2023-06-22T18:18:07;6.43;;;3.35;;
34573;SDS011;20809;49.594;8.734;2023-06-22T18:21:09;8.50;;;3.58;;
34573;SDS011;20809;49.594;8.734;2023-06-22T18:24:11;12.70;;;3.90;;
34573;SDS011;20809;49.594;8.734;2023-06-22T18:27:14;6.53;;;3.25;;
34573;SDS011;20809;49.594;8.734;2023-06-22T18:30:16;7.03;;;2.90;;
34573;SDS011;20809;49.594;8.734;2023-06-22T18:33:17;8.30;;;3.33;;
34573;SDS011;20809;49.594;8.734;2023-06-22T18:36:26;8.90;;;3.33;;
34573;SDS011;20809;49.594;8.734;2023-06-22T18:39:49;8.30;;;3.05;;
34573;SDS011;20809;49.594;8.734;2023-06-22T18:42:58;8.90;;;3.20;;
34573;SDS011;20809;49.594;8.734;2023-06-22T18:52:39;6.40;;;3.28;;
34573;SDS011;20809;49.594;8.734;2023-06-22T18:55:43;7.47;;;2.75;;
34573;SDS011;20809;49.594;8.734;2023-06-22T18:58:44;6.63;;;3.15;;
34573;SDS011;20809;49.594;8.734;2023-06-22T19:01:59;6.30;;;2.85;;
34573;SDS011;20809;49.594;8.734;2023-06-22T19:08:12;10.95;;;3.83;;
34573;SDS011;20809;49.594;8.734;2023-06-22T19:11:14;6.55;;;2.53;;
34573;SDS011;20809;49.594;8.734;2023-06-22T19:14:19;8.02;;;3.03;;
34573;SDS011;20809;49.594;8.734;2023-06-22T19:17:22;9.20;;;2.83;;
34573;SDS011;20809;49.594;8.734;2023-06-22T19:20:30;3.53;;;2.65;;
34573;SDS011;20809;49.594;8.734;2023-06-22T19:23:39;5.22;;;2.38;;
34573;SDS011;20809;49.594;8.734;2023-06-22T19:26:50;5.18;;;2.42;;